KKLS/KLS METAR and TAF weather

Enter ICAO airport designator
Station Type Date Time Source
KKLS METAR 2020/10/20 17:56 UTC NOAA

KKLS 201756Z AUTO 00000KT 10SM FEW012 BKN100 13/09 A3023 RMK AO2 SLP241 T01280094 10128 20089 50001


Station Type Date Time Source
KKLS Decoded METAR 2020/10/20 17:56 UTC NOAA

Kelso, Kelso-Longview Airport, WA, United States (KKLS) 46-07N 122-54W
Oct 20, 2020 - 01:56 PM EDT / 2020.10.20 1756 UTC
Wind: Calm:0
Visibility: 10 mile(s):0
Sky conditions: mostly cloudy
Temperature: 55.0 F (12.8 C)
Dew Point: 48.9 F (9.4 C)
Relative Humidity: 79%
Pressure (altimeter): 30.23 in. Hg (1023 hPa)
Pressure tendency: 0.00 inches (0.1 hPa) higher than three hours ago
ob: KKLS 201756Z AUTO 00000KT 10SM FEW012 BKN100 13/09 A3023 RMK AO2 SLP241 T01280094 10128 20089 50001
cycle: 18

Station Type Date Time Source
KKLS TAF UTC NOAA

Error!

Example: see airport list